Wolford, North Dakota
Current Conditions -  °F | °C
As of 10:55 AM on Monday 22 Dec 2014 (Local Time) from KRUG Reporting Station
Haze Haze  
Wind Chill: 23°   Ceiling: 1000
Heat Index: 30°   Visibility: 3mi
Dew Point: 30°   Wind: 8mph
Humidity: 100%   Direction: 40°NE
Pressure: 29.54"   Gusts: NA
Location:  48.5°N, 99.7°W
Report Text: KRUG 221655Z AUTO 04007KT 3SM BR FEW004 BKN010 M01/M01 A2954 RMK AO2
Loading
Personal Weather Stations






























Interactive Weather Map New forecast layout! Learn more

10-Day Weather Forecast

Advertisements
Track Severe Weather on mobile